AirNav   Bose Proflight Series 2 Wireless Aviation Headset
 
 336 users online  

7CA9 River Meadow Farm Heliport
Rutherford, California, USA

GOING TO RUTHERFORD?


FAA INFORMATION EFFECTIVE 07 NOVEMBER 2019

Location

FAA Identifier: 7CA9
Lat/Long: 38-27-45.6000N 122-24-52.8000W
38-27.760000N 122-24.880000W
38.4626667,-122.4146667
(estimated)
Elevation: 146 ft. / 45 m (estimated)
Variation: 16E (1985)
From city: 1 mile SE of RUTHERFORD, CA
Time zone: UTC -8 (UTC -7 during Daylight Saving Time)
Zip code: 94558

Heliport Operations

Heliport use: Private use. Permission required prior to landing
Activation date: 01/1979
Control tower: no
ARTCC: OAKLAND CENTER
FSS: OAKLAND FLIGHT SERVICE STATION
Attendance: UNATNDD
Wind indicator: yes
Segmented circle: no

Heliport Communications

WX AWOS-3P at O69 (15 nm SW): 132.325 (707-773-1529)
WX ASOS at APC (16 nm SE): PHONE 707-252-7916
WX ASOS at STS (19 nm W): 120.55 (707-573-8393)

Nearby radio navigation aids

VOR radial/distance  VOR name  Freq  Var
SGDr336/17.1SCAGGS ISLAND VORTAC112.1017E
STSr082/18.8SANTA ROSA VOR/DME113.0016E
CCRr308/30.5CONCORD VOR/DME117.0017E
PYEr026/31.4POINT REYES VOR/DME113.7017E
SAUr351/36.8SAUSALITO VOR/DME116.2017E

Heliport Services

Runway Information

Helipad H1

Dimensions: 65 x 65 ft. / 20 x 20 m
Surface: concrete
Latitude: 38-27.760000N
Longitude: 122-24.880000W
Elevation: 146.0 ft.
Traffic pattern: leftleft

Heliport Ownership and Management from official FAA records

Ownership: Privately-owned
Owner: DIANE WILSEY
2590 JACKSON STREET
SAN FRANCISCO, CA 94115
Phone 415-922-2875

Heliport Operational Statistics

Aircraft based on the field: 1
Helicopters: 1
    

Additional Remarks

FOR CD CTC OAKLAND ARTCC AT 510-745-3380.

Instrument Procedures

There are no published instrument procedures at 7CA9.

Some nearby airports with instrument procedures:

O69 - Petaluma Municipal Airport (15 nm SW)
KAPC - Napa County Airport (16 nm SE)
KSTS - Charles M Schulz - Sonoma County Airport (19 nm W)
KDVO - Gnoss Field Airport (20 nm S)
KVCB - Nut Tree Airport (22 nm E)
 
Loc | Ops | Rwys | IFR | FBO | Links
Com | Nav | Svcs | Stats | Notes

Sonoma Jet Center
 
Area around 7CA9 (River Meadow Farm Heliport)
 
Road maps at: MapQuest Bing Google
 
Aerial photo
No photo
 
Sectional chart

 
Airport distance calculator
Flying to River Meadow Farm Heliport? Find the distance to fly.

From to 7CA9

Sunrise and sunset
Times for 12-Nov-2019
 Local
(UTC-8)
 Zulu
(UTC)
Morning civil twilight06:2114:21
Sunrise06:4914:49
Sunset16:5800:58
Evening civil twilight17:2701:27

Current date and time
Zulu (UTC)  12-Nov-2019 10:59:03
Local (UTC-8)  12-Nov-2019 02:59:03
 
METAR
KO69 
15nm SW 
121035Z AUTO 00000KT 10SM CLR 08/08 A3006 RMK A01
KAPC 
17nm S 
121054Z AUTO 00000KT 10SM CLR 08/05 A3005 RMK AO2 SLP166 T00780050
KSTS 
19nm W 
707-573-8393
121053Z AUTO 00000KT 10SM CLR 07/05 A3005 RMK AO2 SLP170 T00670050
KDVO 
20nm S 
121035Z AUTO 00000KT 10SM CLR 07/05 A3006 RMK AO2
KVCB 
22nm E 
120953Z AUTO 00000KT 10SM CLR 09/07 A3007 RMK AO2 SLP183 T00890067
KSUU 
26nm SE 
120958Z AUTO 33004KT 10SM CLR 07/04 A3006 RMK AO2 SLP186 T00710041 $
KEDU 
30nm E 
121035Z AUTO 00000KT 2 1/2SM CLR 09/04 A3007 RMK AO1
TAF
KSTS 
19nm W 
120533Z 1206/1306 VRB04KT P6SM BKN200 FM122300 17007KT P6SM BKN200 FM130500 VRB04KT P6SM BKN200
NOTAMs
Click for the latest NOTAMs
NOTAMs are issued by the DoD/FAA and will open in a separate window not controlled by AirNav.

 

 
 

Would you like to see your business listed on this page?

 If your business provides an interesting product or service to pilots, flight crews, aircraft, or users of the River Meadow Farm Heliport, you should consider listing it here.  To start the listing process, click on the button below
 
Add a business
 

Other Pages about River Meadow Farm Heliport

Update a link
 
Copyright © AirNav, LLC. All rights reserved. Privacy Policy  Contact